KMKC

Charles B. Wheeler Downtown Airport

Airport
ICAO code
KMKC
IATA Code
MKC
Summary
ICAO Region
NAM
ICAO Territory
Location

Kansas City, Missouri

Serving
Kansas City
Elevation
757 ft
Coordinates
39° 7' 24" N , 94° 35' 34" W
KCC
Metar
KMKC 161354Z 16017G27KT 10SM FEW019 BKN024 OVC044 21/18 A2952 RMK AO2 PK WND 15035/1314 SLP987 T02110178

Description

Charles B. Wheeler Downtown Airport, also known as Kansas City Downtown Airport, is a public airport located in Kansas City, Missouri.

Runways

Designator Length Width Surface Rops
3/21 1539 46 ASP Yes/Yes
1/19 2134 46 CON Yes/Yes

Airport map

Aerial View

SKYbrary Partners:

Safety knowledge contributed by: